createdAt,value
2018-07-30T00:01:06.714Z,13.73
2018-07-30T00:03:35.349Z,13.10
2018-07-30T00:06:03.302Z,13.83
2018-07-30T00:08:32.190Z,12.93
2018-07-30T00:10:59.988Z,13.60
2018-07-30T00:13:27.736Z,14.03
2018-07-30T00:15:56.309Z,13.77
2018-07-30T00:18:24.295Z,13.80
2018-07-30T00:20:52.657Z,13.23
2018-07-30T00:23:20.487Z,15.23
2018-07-30T00:25:48.471Z,14.03
2018-07-30T00:28:16.965Z,13.40
2018-07-30T00:30:44.842Z,14.30
2018-07-30T00:33:12.807Z,13.50
2018-07-30T00:35:40.677Z,15.30
2018-07-30T00:38:09.221Z,12.63
2018-07-30T00:40:37.081Z,13.13
2018-07-30T00:43:04.950Z,12.90
2018-07-30T00:45:33.497Z,13.93
2018-07-30T00:48:01.210Z,14.13
2018-07-30T00:50:29.094Z,13.67
2018-07-30T00:52:57.681Z,12.90
2018-07-30T00:55:25.550Z,13.10
2018-07-30T00:57:54.162Z,13.43
2018-07-30T01:00:21.886Z,12.47
2018-07-30T01:02:49.722Z,12.40
2018-07-30T01:05:17.691Z,14.00
2018-07-30T01:07:45.611Z,12.80
2018-07-30T01:10:13.476Z,12.87
2018-07-30T01:12:41.343Z,13.67
2018-07-30T01:15:09.402Z,13.40
2018-07-30T01:17:37.599Z,13.70
2018-07-30T01:20:05.557Z,12.60
2018-07-30T01:22:33.432Z,15.00
2018-07-30T01:25:01.383Z,11.80
2018-07-30T01:27:29.274Z,12.67
2018-07-30T01:29:56.995Z,14.60
2018-07-30T01:32:24.859Z,14.73
2018-07-30T01:34:53.314Z,14.07
2018-07-30T01:37:21.877Z,13.97
2018-07-30T01:39:49.670Z,15.40
2018-07-30T01:42:17.574Z,14.30
2018-07-30T01:44:45.509Z,12.70
2018-07-30T01:47:13.414Z,13.20
2018-07-30T01:49:41.363Z,13.07
2018-07-30T01:52:09.302Z,13.20
2018-07-30T01:54:37.149Z,13.30
2018-07-30T01:57:04.857Z,14.30
2018-07-30T01:59:32.733Z,13.53
2018-07-30T02:02:00.609Z,14.60
2018-07-30T02:04:28.553Z,13.83
2018-07-30T02:06:56.414Z,13.63
2018-07-30T02:09:24.293Z,14.00
2018-07-30T02:11:52.187Z,14.77
2018-07-30T02:14:20.173Z,14.30
2018-07-30T02:16:47.934Z,13.27
2018-07-30T02:19:15.651Z,14.47
2018-07-30T02:21:44.130Z,15.07
2018-07-30T02:24:12.064Z,13.70
2018-07-30T02:26:40.073Z,14.30
2018-07-30T02:29:08.702Z,14.10
2018-07-30T02:31:38.367Z,14.00
2018-07-30T02:34:07.164Z,13.80
2018-07-30T02:36:35.120Z,14.03
2018-07-30T02:39:03.162Z,15.67
2018-07-30T02:41:30.911Z,13.00
2018-07-30T02:43:59.531Z,14.80
2018-07-30T02:46:27.453Z,14.23
2018-07-30T02:48:55.408Z,13.17
2018-07-30T02:51:23.350Z,13.80
2018-07-30T02:53:51.232Z,12.90
2018-07-30T02:56:19.140Z,13.90
2018-07-30T02:58:47.635Z,13.63
2018-07-30T03:01:15.367Z,12.73
2018-07-30T03:03:43.275Z,14.30
2018-07-30T03:06:11.684Z,16.13
2018-07-30T03:08:39.602Z,15.07
2018-07-30T03:11:07.516Z,13.77
2018-07-30T03:13:35.369Z,15.07
2018-07-30T03:16:03.961Z,13.17
2018-07-30T03:18:31.980Z,15.33
2018-07-30T03:20:59.845Z,15.13
2018-07-30T03:23:27.719Z,14.97
2018-07-30T03:25:56.302Z,14.30
2018-07-30T03:28:24.585Z,14.47
2018-07-30T03:30:52.734Z,14.33
2018-07-30T03:33:20.617Z,14.43
2018-07-30T03:35:48.365Z,14.53
2018-07-30T03:38:16.232Z,13.43
2018-07-30T03:40:44.108Z,13.67
2018-07-30T03:43:12.715Z,14.30
2018-07-30T03:45:40.455Z,14.80
2018-07-30T03:48:08.551Z,15.23
2018-07-30T03:50:36.431Z,14.07
2018-07-30T03:53:04.180Z,15.67
2018-07-30T03:55:31.994Z,15.53
2018-07-30T03:58:00.264Z,15.70
2018-07-30T04:00:28.320Z,16.97
2018-07-30T04:02:56.216Z,14.57
2018-07-30T04:05:24.167Z,15.47
2018-07-30T04:07:52.250Z,18.10
2018-07-30T04:10:20.183Z,14.30
2018-07-30T04:12:48.353Z,19.07
2018-07-30T04:15:16.380Z,16.20
2018-07-30T04:17:44.811Z,18.10
2018-07-30T04:20:13.489Z,18.13
2018-07-30T04:22:41.952Z,17.70
2018-07-30T04:25:09.913Z,17.90
2018-07-30T04:27:37.665Z,18.27
2018-07-30T04:30:05.502Z,19.00
2018-07-30T04:32:33.391Z,18.17
2018-07-30T04:35:01.151Z,18.10
2018-07-30T04:37:29.637Z,18.50
2018-07-30T04:39:57.503Z,18.73
2018-07-30T04:42:25.446Z,18.43
2018-07-30T04:44:53.296Z,17.77
2018-07-30T04:47:21.291Z,17.57
2018-07-30T04:49:49.191Z,20.13
2018-07-30T04:52:17.085Z,18.50
2018-07-30T04:54:44.819Z,18.00
2018-07-30T04:57:12.733Z,19.60
2018-07-30T04:59:41.290Z,18.43
2018-07-30T05:02:09.222Z,19.80
2018-07-30T05:04:37.998Z,17.67
2018-07-30T05:07:05.852Z,18.23
2018-07-30T05:09:33.756Z,18.87
2018-07-30T05:12:01.682Z,18.90
2018-07-30T05:14:29.640Z,20.47
2018-07-30T05:16:57.661Z,20.60
2018-07-30T05:19:25.720Z,21.27
2018-07-30T05:21:53.623Z,21.70
2018-07-30T05:24:21.558Z,19.73
2018-07-30T05:26:49.794Z,20.20
2018-07-30T05:29:17.691Z,20.17
2018-07-30T05:31:45.680Z,24.00
2018-07-30T05:34:13.589Z,21.57
2018-07-30T05:36:42.913Z,19.67
2018-07-30T05:39:11.498Z,20.30
2018-07-30T05:41:39.754Z,19.30
2018-07-30T05:44:08.322Z,19.93
2018-07-30T05:46:36.070Z,19.43
2018-07-30T05:49:04.692Z,18.67
2018-07-30T05:51:32.736Z,19.63
2018-07-30T05:54:00.655Z,19.17
2018-07-30T05:56:28.542Z,18.70
2018-07-30T05:58:56.427Z,16.80
2018-07-30T06:01:24.365Z,18.73
2018-07-30T06:03:53.275Z,16.67
2018-07-30T06:06:21.255Z,15.60
2018-07-30T06:08:49.018Z,16.47
2018-07-30T06:11:16.824Z,15.20
2018-07-30T06:13:44.833Z,16.27
2018-07-30T06:16:12.813Z,15.60
2018-07-30T06:18:40.601Z,15.23
2018-07-30T06:21:08.593Z,17.63
2018-07-30T06:23:38.209Z,17.20
2018-07-30T06:26:07.061Z,16.10
2018-07-30T06:28:34.991Z,17.73
2018-07-30T06:31:02.906Z,16.33
2018-07-30T06:33:31.643Z,15.93
2018-07-30T06:36:00.717Z,13.43
2018-07-30T06:38:29.413Z,14.57
2018-07-30T06:40:58.486Z,15.00
2018-07-30T06:43:26.538Z,14.97
2018-07-30T06:45:54.515Z,14.07
2018-07-30T06:48:22.673Z,15.90
2018-07-30T06:50:50.552Z,14.90
2018-07-30T06:53:18.387Z,14.17
2018-07-30T06:55:46.930Z,14.43
2018-07-30T06:58:14.857Z,14.70
2018-07-30T07:00:42.768Z,13.83
2018-07-30T07:03:12.185Z,13.67
2018-07-30T07:05:40.721Z,12.73
2018-07-30T07:08:08.511Z,14.23
2018-07-30T07:10:36.514Z,12.73
2018-07-30T07:13:04.557Z,13.33
2018-07-30T07:15:32.466Z,13.27
2018-07-30T07:18:00.934Z,12.70
2018-07-30T07:20:28.837Z,12.77
2018-07-30T07:22:57.447Z,10.67
2018-07-30T07:25:25.181Z,11.30
2018-07-30T07:27:53.077Z,10.97
2018-07-30T07:30:21.118Z,8.60
2018-07-30T07:32:49.076Z,9.90
2018-07-30T07:35:16.981Z,9.17
2018-07-30T07:37:50.183Z,8.63
2018-07-30T07:40:18.246Z,8.60
2018-07-30T07:42:46.537Z,8.80
2018-07-30T07:45:14.505Z,8.30
2018-07-30T07:47:42.438Z,9.10
2018-07-30T07:50:11.647Z,9.20
2018-07-30T07:52:39.505Z,8.70
2018-07-30T07:55:07.395Z,9.27
2018-07-30T07:57:35.348Z,9.47
2018-07-30T08:00:05.338Z,9.07
2018-07-30T08:02:33.236Z,9.30
2018-07-30T08:05:01.161Z,9.30
2018-07-30T08:07:30.001Z,10.03
2018-07-30T08:09:58.049Z,9.47
2018-07-30T08:12:25.878Z,9.20
2018-07-30T08:14:53.881Z,9.30
2018-07-30T08:17:21.793Z,9.67
2018-07-30T08:19:49.710Z,9.50
2018-07-30T08:22:18.644Z,8.80
2018-07-30T08:24:46.630Z,8.90
2018-07-30T08:27:14.560Z,8.57
2018-07-30T08:29:42.528Z,9.17
2018-07-30T08:32:10.449Z,9.00
2018-07-30T08:34:38.701Z,9.00
2018-07-30T08:37:06.748Z,9.00
2018-07-30T08:39:34.529Z,9.17
2018-07-30T08:42:02.277Z,9.43
2018-07-30T08:44:30.162Z,9.87
2018-07-30T08:46:58.098Z,9.70
2018-07-30T08:49:26.047Z,8.97
2018-07-30T08:51:53.985Z,9.33
2018-07-30T08:54:21.917Z,9.17
2018-07-30T08:56:49.832Z,9.40
2018-07-30T08:59:17.826Z,8.90
2018-07-30T09:01:45.902Z,9.33
2018-07-30T09:04:13.846Z,10.20
2018-07-30T09:06:41.812Z,10.93
2018-07-30T09:09:10.464Z,8.83
2018-07-30T09:11:38.945Z,9.00
2018-07-30T09:14:07.152Z,8.47
2018-07-30T09:16:35.034Z,9.60
2018-07-30T09:19:03.723Z,8.90
2018-07-30T09:21:31.654Z,9.20
2018-07-30T09:23:59.715Z,10.13
2018-07-30T09:26:28.673Z,8.90
2018-07-30T09:28:56.599Z,9.10
2018-07-30T09:31:24.559Z,8.93
2018-07-30T09:33:53.083Z,9.50
2018-07-30T09:36:23.372Z,9.03
2018-07-30T09:38:51.709Z,8.93
2018-07-30T09:41:20.316Z,9.47
2018-07-30T09:43:48.606Z,10.63
2018-07-30T09:46:16.666Z,8.57
2018-07-30T09:48:44.551Z,8.80
2018-07-30T09:51:12.315Z,8.97
2018-07-30T09:53:41.056Z,9.03
2018-07-30T09:56:09.342Z,9.87
2018-07-30T09:58:37.547Z,8.60
2018-07-30T10:01:13.600Z,9.17
2018-07-30T10:03:42.053Z,9.13
2018-07-30T10:06:09.977Z,9.10
2018-07-30T10:08:38.738Z,10.53
2018-07-30T10:11:06.670Z,9.20
2018-07-30T10:13:35.015Z,9.67
2018-07-30T10:16:02.931Z,9.23
2018-07-30T10:18:31.780Z,9.37
2018-07-30T10:20:59.768Z,8.77
2018-07-30T10:23:27.706Z,9.70
2018-07-30T10:25:55.619Z,9.73
2018-07-30T10:28:23.569Z,9.60
2018-07-30T10:30:52.877Z,9.40
2018-07-30T10:33:20.679Z,10.60
2018-07-30T10:35:48.536Z,10.07
2018-07-30T10:38:16.769Z,9.80
2018-07-30T10:40:45.847Z,10.17
2018-07-30T10:43:13.907Z,9.47
2018-07-30T10:45:41.920Z,10.40
2018-07-30T10:48:09.861Z,10.43
2018-07-30T10:50:37.730Z,9.97
2018-07-30T10:53:10.199Z,11.90
2018-07-30T10:55:38.180Z,10.97
2018-07-30T10:58:06.429Z,10.07
2018-07-30T11:00:34.410Z,10.80
2018-07-30T11:03:02.319Z,10.83
2018-07-30T11:05:30.230Z,9.77
2018-07-30T11:07:58.006Z,10.70
2018-07-30T11:10:26.265Z,9.83
2018-07-30T11:12:54.222Z,9.83
2018-07-30T11:15:22.140Z,9.90
2018-07-30T11:17:50.210Z,10.07
2018-07-30T11:20:18.970Z,9.83
2018-07-30T11:22:46.718Z,10.40
2018-07-30T11:25:14.675Z,9.63
2018-07-30T11:27:42.624Z,10.00
2018-07-30T11:30:11.146Z,9.40
2018-07-30T11:32:39.113Z,9.80
2018-07-30T11:35:06.900Z,8.70
2018-07-30T11:37:34.826Z,10.20
2018-07-30T11:40:03.094Z,9.97
2018-07-30T11:42:31.024Z,9.57
2018-07-30T11:44:59.279Z,9.40
2018-07-30T11:47:27.022Z,10.20
2018-07-30T11:49:55.691Z,11.60
2018-07-30T11:52:24.120Z,10.23
2018-07-30T11:54:52.055Z,11.20
2018-07-30T11:57:20.887Z,9.10
2018-07-30T11:59:49.734Z,10.40
2018-07-30T12:02:17.702Z,9.70
2018-07-30T12:04:45.696Z,8.40
2018-07-30T12:07:13.865Z,8.57
2018-07-30T12:09:42.056Z,8.87
2018-07-30T12:12:09.978Z,8.50
2018-07-30T12:14:37.956Z,7.80
2018-07-30T12:17:05.884Z,7.40
2018-07-30T12:19:34.379Z,8.47
2018-07-30T12:22:02.732Z,7.40
2018-07-30T12:24:31.312Z,8.30
2018-07-30T12:26:59.270Z,8.60
2018-07-30T12:29:27.056Z,8.30
2018-07-30T12:31:54.999Z,8.40
2018-07-30T12:34:23.449Z,8.53
2018-07-30T12:36:51.361Z,9.10
2018-07-30T12:39:19.253Z,8.77
2018-07-30T12:41:47.169Z,9.13
2018-07-30T12:44:15.485Z,8.97
2018-07-30T12:46:43.949Z,9.13
2018-07-30T12:49:11.716Z,7.50
2018-07-30T12:51:40.911Z,7.67
2018-07-30T12:54:08.707Z,7.50
2018-07-30T12:56:36.711Z,8.07
2018-07-30T12:59:04.614Z,8.03
2018-07-30T13:01:32.504Z,8.33
2018-07-30T13:04:00.395Z,8.23
2018-07-30T13:06:28.327Z,7.43
2018-07-30T13:08:56.930Z,8.90
2018-07-30T13:11:24.845Z,7.93
2018-07-30T13:13:52.765Z,8.10
2018-07-30T13:16:22.138Z,8.07
2018-07-30T13:18:49.877Z,7.93
2018-07-30T13:21:17.673Z,7.47
2018-07-30T13:23:45.942Z,8.27
2018-07-30T13:26:13.688Z,8.10
2018-07-30T13:28:41.547Z,9.10
2018-07-30T13:31:10.065Z,8.40
2018-07-30T13:33:37.967Z,7.87
2018-07-30T13:36:06.935Z,8.10
2018-07-30T13:38:34.855Z,8.40
2018-07-30T13:41:02.799Z,7.90
2018-07-30T13:43:30.931Z,8.40
2018-07-30T13:45:59.516Z,10.20
2018-07-30T13:48:27.896Z,13.07
2018-07-30T13:50:55.943Z,10.50
2018-07-30T13:53:23.857Z,8.10
2018-07-30T13:55:51.774Z,7.43
2018-07-30T13:58:19.820Z,8.30
2018-07-30T14:00:48.020Z,8.50
2018-07-30T14:03:15.906Z,7.90
2018-07-30T14:05:43.767Z,8.40
2018-07-30T14:08:11.522Z,9.30
2018-07-30T14:10:39.300Z,8.10
2018-07-30T14:13:07.221Z,7.60
2018-07-30T14:15:35.872Z,8.17
2018-07-30T14:18:03.873Z,8.10
2018-07-30T14:20:31.788Z,8.50
2018-07-30T14:23:00.248Z,8.10
2018-07-30T14:25:28.271Z,7.83
2018-07-30T14:27:56.728Z,8.30
2018-07-30T14:30:24.768Z,8.37
2018-07-30T14:32:53.093Z,8.87
2018-07-30T14:35:21.035Z,8.80
2018-07-30T14:37:48.791Z,8.77
2018-07-30T14:40:16.736Z,8.10
2018-07-30T14:42:45.241Z,8.03
2018-07-30T14:45:13.197Z,7.73
2018-07-30T14:47:41.872Z,7.60
2018-07-30T14:50:10.929Z,7.10
2018-07-30T14:52:40.229Z,6.53
2018-07-30T14:55:08.270Z,6.30
2018-07-30T14:57:36.331Z,7.30
2018-07-30T15:00:05.910Z,7.13
2018-07-30T15:02:33.820Z,7.10
2018-07-30T15:05:01.726Z,8.00
2018-07-30T15:07:30.798Z,8.37
2018-07-30T15:09:58.544Z,7.03
2018-07-30T15:12:26.686Z,11.73
2018-07-30T15:14:54.845Z,8.20
2018-07-30T15:17:23.080Z,8.17
2018-07-30T15:19:50.856Z,7.13
2018-07-30T15:22:19.425Z,7.00
2018-07-30T15:24:47.435Z,6.93
2018-07-30T15:27:15.400Z,7.87
2018-07-30T15:29:43.445Z,6.57
2018-07-30T15:32:11.291Z,7.60
2018-07-30T15:34:39.387Z,7.10
2018-07-30T15:37:07.355Z,7.73
2018-07-30T15:39:35.290Z,7.40
2018-07-30T15:42:03.301Z,7.83
2018-07-30T15:44:31.226Z,6.93
2018-07-30T15:46:59.155Z,7.63
2018-07-30T15:49:28.055Z,7.20
2018-07-30T15:51:55.999Z,7.50
2018-07-30T15:54:23.914Z,7.73
2018-07-30T15:56:51.980Z,7.87
2018-07-30T15:59:20.076Z,6.83
2018-07-30T16:01:47.858Z,7.80
2018-07-30T16:04:15.648Z,6.90
2018-07-30T16:06:43.547Z,7.37
2018-07-30T16:09:11.516Z,7.40
2018-07-30T16:11:39.482Z,6.87
2018-07-30T16:14:07.428Z,7.23
2018-07-30T16:16:36.008Z,6.77
2018-07-30T16:19:03.949Z,9.47
2018-07-30T16:21:32.244Z,8.27
2018-07-30T16:24:01.135Z,7.17
2018-07-30T16:26:29.114Z,7.10
2018-07-30T16:28:57.067Z,7.37
2018-07-30T16:31:24.850Z,7.60
2018-07-30T16:33:52.831Z,7.23
2018-07-30T16:36:20.747Z,8.67
2018-07-30T16:38:49.197Z,13.03
2018-07-30T16:41:17.097Z,7.83
2018-07-30T16:43:45.390Z,8.37
2018-07-30T16:46:13.942Z,7.80
2018-07-30T16:48:42.728Z,7.37
2018-07-30T16:51:10.835Z,7.70
2018-07-30T16:53:38.586Z,7.53
2018-07-30T16:56:06.527Z,7.00
2018-07-30T16:58:34.455Z,6.73
2018-07-30T17:01:02.698Z,7.67
2018-07-30T17:03:30.691Z,8.60
2018-07-30T17:05:59.464Z,8.23
2018-07-30T17:08:27.415Z,9.07
2018-07-30T17:10:55.949Z,9.50
2018-07-30T17:13:23.878Z,10.67
2018-07-30T17:15:51.669Z,8.73
2018-07-30T17:18:19.454Z,8.67
2018-07-30T17:20:47.364Z,8.83
2018-07-30T17:23:15.674Z,9.27
2018-07-30T17:25:43.450Z,9.03
2018-07-30T17:28:12.077Z,8.67
2018-07-30T17:30:40.684Z,9.10
2018-07-30T17:33:08.480Z,8.70
2018-07-30T17:35:36.403Z,8.60
2018-07-30T17:38:06.349Z,8.10
2018-07-30T17:40:34.247Z,8.97
2018-07-30T17:43:02.175Z,8.50
2018-07-30T17:45:30.055Z,9.10
2018-07-30T17:47:57.967Z,9.30
2018-07-30T17:50:26.308Z,8.10
2018-07-30T17:52:54.075Z,9.50
2018-07-30T17:55:21.891Z,8.90
2018-07-30T17:57:49.822Z,9.60
2018-07-30T18:00:17.737Z,57.63
2018-07-30T18:02:45.696Z,75.40
2018-07-30T18:05:17.396Z,61.63
2018-07-30T18:07:46.195Z,32.33
2018-07-30T18:10:14.178Z,20.67
2018-07-30T18:12:42.087Z,18.63
2018-07-30T18:15:10.742Z,16.80
2018-07-30T18:17:38.675Z,10.90
2018-07-30T18:20:06.639Z,10.00
2018-07-30T18:22:35.522Z,12.20
2018-07-30T18:25:03.566Z,15.77
2018-07-30T18:27:31.523Z,18.53
2018-07-30T18:30:00.055Z,13.40
2018-07-30T18:32:27.925Z,15.80
2018-07-30T18:34:55.697Z,14.37
2018-07-30T18:37:23.481Z,12.53
2018-07-30T18:39:51.330Z,11.97
2018-07-30T18:42:19.763Z,10.87
2018-07-30T18:44:47.710Z,10.40
2018-07-30T18:47:15.683Z,10.00
2018-07-30T18:49:43.594Z,10.00
2018-07-30T18:52:11.400Z,10.17
2018-07-30T18:54:39.333Z,11.00
2018-07-30T18:57:07.315Z,11.37
2018-07-30T18:59:35.244Z,11.60
2018-07-30T19:02:03.584Z,11.73
2018-07-30T19:04:31.561Z,11.73
2018-07-30T19:07:00.177Z,11.23
2018-07-30T19:09:28.058Z,9.63
2018-07-30T19:11:55.878Z,10.97
2018-07-30T19:14:24.365Z,12.23
2018-07-30T19:16:53.764Z,11.93
2018-07-30T19:19:22.843Z,13.30
2018-07-30T19:21:50.590Z,11.63
2018-07-30T19:24:19.224Z,10.63
2018-07-30T19:26:47.131Z,11.50
2018-07-30T19:29:15.024Z,10.90
2018-07-30T19:31:42.973Z,10.87
2018-07-30T19:34:10.880Z,12.40
2018-07-30T19:36:38.861Z,11.20
2018-07-30T19:39:09.680Z,11.77
2018-07-30T19:41:38.067Z,11.00
2018-07-30T19:44:06.328Z,11.23
2018-07-30T19:46:34.816Z,11.17
2018-07-30T19:49:02.828Z,11.43
2018-07-30T19:51:30.832Z,12.13
2018-07-30T19:53:58.800Z,10.70
2018-07-30T19:56:26.891Z,11.07
2018-07-30T19:58:55.637Z,12.23
2018-07-30T20:01:23.411Z,11.17
2018-07-30T20:03:51.195Z,11.07
2018-07-30T20:06:19.841Z,10.17
2018-07-30T20:08:48.345Z,11.67
2018-07-30T20:11:16.414Z,11.63
2018-07-30T20:13:44.297Z,11.43
2018-07-30T20:16:12.105Z,12.53
2018-07-30T20:18:40.560Z,12.03
2018-07-30T20:21:08.458Z,9.80
2018-07-30T20:23:36.359Z,12.07
2018-07-30T20:26:04.341Z,12.07
2018-07-30T20:28:32.254Z,11.90
2018-07-30T20:31:00.233Z,11.80
2018-07-30T20:33:28.890Z,12.10
2018-07-30T20:35:56.851Z,13.43
2018-07-30T20:38:24.636Z,12.20
2018-07-30T20:40:52.599Z,11.50
2018-07-30T20:43:20.507Z,13.80
2018-07-30T20:45:49.370Z,12.83
2018-07-30T20:48:17.297Z,12.40
2018-07-30T20:50:46.177Z,12.40
2018-07-30T20:53:14.134Z,13.70
2018-07-30T20:55:42.036Z,13.03
2018-07-30T20:58:10.234Z,12.50
2018-07-30T21:00:37.943Z,12.53
2018-07-30T21:03:06.669Z,12.70
2018-07-30T21:05:40.338Z,13.17
2018-07-30T21:08:08.293Z,12.27
2018-07-30T21:10:36.200Z,12.37
2018-07-30T21:13:04.086Z,13.17
2018-07-30T21:15:32.005Z,13.50
2018-07-30T21:18:00.831Z,14.27
2018-07-30T21:20:28.780Z,12.27
2018-07-30T21:22:56.703Z,13.37
2018-07-30T21:25:24.691Z,13.33
2018-07-30T21:27:52.581Z,13.80
2018-07-30T21:30:20.535Z,13.80
2018-07-30T21:32:49.107Z,14.00
2018-07-30T21:35:16.995Z,13.20
2018-07-30T21:37:45.624Z,14.40
2018-07-30T21:40:13.513Z,16.07
2018-07-30T21:42:41.408Z,14.10
2018-07-30T21:45:09.336Z,14.67
2018-07-30T21:47:37.154Z,15.40
2018-07-30T21:50:06.009Z,15.50
2018-07-30T21:52:34.036Z,13.63
2018-07-30T21:55:02.543Z,13.60
2018-07-30T21:57:30.995Z,13.97
2018-07-30T21:59:59.179Z,15.33
2018-07-30T22:02:27.120Z,15.67
2018-07-30T22:04:55.314Z,13.30
2018-07-30T22:07:23.081Z,15.80
2018-07-30T22:09:51.158Z,15.20
2018-07-30T22:12:19.883Z,16.37
2018-07-30T22:14:48.255Z,14.93
2018-07-30T22:17:16.834Z,15.10
2018-07-30T22:19:44.755Z,14.47
2018-07-30T22:22:12.708Z,14.10
2018-07-30T22:24:40.627Z,13.20
2018-07-30T22:27:08.438Z,15.87
2018-07-30T22:29:36.890Z,14.53
2018-07-30T22:32:04.925Z,14.93
2018-07-30T22:34:32.669Z,13.93
2018-07-30T22:37:00.595Z,14.17
2018-07-30T22:39:28.464Z,14.23
2018-07-30T22:41:56.383Z,14.90
2018-07-30T22:44:24.935Z,15.97
2018-07-30T22:46:52.917Z,14.20
2018-07-30T22:49:20.865Z,15.33
2018-07-30T22:51:48.802Z,13.90
2018-07-30T22:54:16.539Z,12.70
2018-07-30T22:56:44.402Z,15.13
2018-07-30T22:59:12.923Z,14.57
2018-07-30T23:01:40.846Z,14.23
2018-07-30T23:04:08.750Z,14.63
2018-07-30T23:06:37.349Z,15.63
2018-07-30T23:09:06.553Z,13.67
2018-07-30T23:11:35.057Z,13.80
2018-07-30T23:14:02.956Z,14.90
2018-07-30T23:16:30.718Z,14.40
2018-07-30T23:18:58.558Z,14.73
2018-07-30T23:21:32.710Z,14.47
2018-07-30T23:24:01.913Z,15.47
2018-07-30T23:26:29.820Z,16.63
2018-07-30T23:28:58.467Z,14.53
2018-07-30T23:31:26.337Z,16.13
2018-07-30T23:33:54.313Z,15.07
2018-07-30T23:36:22.118Z,15.30
2018-07-30T23:38:50.067Z,14.43
2018-07-30T23:41:18.703Z,17.20
2018-07-30T23:43:46.648Z,14.60
2018-07-30T23:46:14.451Z,15.37
2018-07-30T23:48:42.351Z,16.70
2018-07-30T23:51:11.447Z,16.10
2018-07-30T23:53:39.417Z,15.00
2018-07-30T23:56:08.027Z,15.10
2018-07-30T23:58:35.934Z,14.73
